createdAt,value
2018-01-28T00:00:46.333Z,6.70
2018-01-28T00:03:14.908Z,6.70
2018-01-28T00:05:44.794Z,6.60
2018-01-28T00:08:11.850Z,6.60
2018-01-28T00:10:39.613Z,6.70
2018-01-28T00:13:07.498Z,6.60
2018-01-28T00:15:35.508Z,6.50
2018-01-28T00:18:05.470Z,6.50
2018-01-28T00:20:34.585Z,6.50
2018-01-28T00:23:02.601Z,6.50
2018-01-28T00:25:29.922Z,6.60
2018-01-28T00:27:58.232Z,6.40
2018-01-28T00:30:26.931Z,6.50
2018-01-28T00:32:55.873Z,6.50
2018-01-28T00:35:25.365Z,6.50
2018-01-28T00:37:53.859Z,6.50
2018-01-28T00:40:24.844Z,6.40
2018-01-28T00:42:53.218Z,6.40
2018-01-28T00:45:21.266Z,6.50
2018-01-28T00:47:49.483Z,6.30
2018-01-28T00:50:19.140Z,6.50
2018-01-28T00:52:48.332Z,6.50
2018-01-28T00:55:17.126Z,6.50
2018-01-28T00:57:44.867Z,6.50
2018-01-28T01:00:14.579Z,6.50
2018-01-28T01:02:43.891Z,6.60
2018-01-28T01:05:14.007Z,6.60
2018-01-28T01:07:44.189Z,6.50
2018-01-28T01:10:11.685Z,6.50
2018-01-28T01:12:39.795Z,6.50
2018-01-28T01:15:07.519Z,6.40
2018-01-28T01:17:35.599Z,6.60
2018-01-28T01:20:02.846Z,6.50
2018-01-28T01:22:30.614Z,6.60
2018-01-28T01:24:58.738Z,6.70
2018-01-28T01:27:26.128Z,6.60
2018-01-28T01:29:54.550Z,6.50
2018-01-28T01:32:22.015Z,6.50
2018-01-28T01:34:49.461Z,6.60
2018-01-28T01:37:17.147Z,6.60
2018-01-28T01:39:44.407Z,6.50
2018-01-28T01:42:12.479Z,6.60
2018-01-28T01:44:41.874Z,6.70
2018-01-28T01:47:10.056Z,6.70
2018-01-28T01:49:39.002Z,6.80
2018-01-28T01:52:05.950Z,6.80
2018-01-28T01:54:35.141Z,6.70
2018-01-28T01:57:03.210Z,6.70
2018-01-28T01:59:32.785Z,6.80
2018-01-28T02:02:01.199Z,6.80
2018-01-28T02:04:29.582Z,6.80
2018-01-28T02:06:57.949Z,6.80
2018-01-28T02:09:26.416Z,6.80
2018-01-28T02:11:55.531Z,6.80
2018-01-28T02:14:24.030Z,6.80
2018-01-28T02:16:52.300Z,6.70
2018-01-28T02:19:20.091Z,6.70
2018-01-28T02:21:49.373Z,6.90
2018-01-28T02:24:17.225Z,6.90
2018-01-28T02:26:46.072Z,7.00
2018-01-28T02:29:14.104Z,6.90
2018-01-28T02:31:42.675Z,7.00
2018-01-28T02:34:10.784Z,7.00
2018-01-28T02:36:38.633Z,6.90
2018-01-28T02:39:08.202Z,7.00
2018-01-28T02:41:36.300Z,7.00
2018-01-28T02:44:04.907Z,6.80
2018-01-28T02:46:33.982Z,6.80
2018-01-28T02:49:02.991Z,6.90
2018-01-28T02:51:30.861Z,6.90
2018-01-28T02:53:58.660Z,6.80
2018-01-28T02:56:26.909Z,6.90
2018-01-28T02:58:55.287Z,6.90
2018-01-28T03:01:22.907Z,6.90
2018-01-28T03:03:50.816Z,6.80
2018-01-28T03:06:18.826Z,6.80
2018-01-28T03:08:47.020Z,6.90
2018-01-28T03:11:14.866Z,6.90
2018-01-28T03:13:42.983Z,7.00
2018-01-28T03:16:11.947Z,6.90
2018-01-28T03:18:39.865Z,6.90
2018-01-28T03:21:07.669Z,7.00
2018-01-28T03:23:35.748Z,6.90
2018-01-28T03:26:03.810Z,7.00
2018-01-28T03:28:31.781Z,6.90
2018-01-28T03:30:59.870Z,7.00
2018-01-28T03:33:28.545Z,7.00
2018-01-28T03:35:56.412Z,7.00
2018-01-28T03:38:24.489Z,7.00
2018-01-28T03:40:52.593Z,7.00
2018-01-28T03:43:20.553Z,7.10
2018-01-28T03:45:48.568Z,6.90
2018-01-28T03:48:16.561Z,7.00
2018-01-28T03:50:44.707Z,6.90
2018-01-28T03:53:12.661Z,6.90
2018-01-28T03:55:40.560Z,6.90
2018-01-28T03:58:08.932Z,6.80
2018-01-28T04:00:37.775Z,6.80
2018-01-28T04:03:06.298Z,6.90
2018-01-28T04:05:34.645Z,6.80
2018-01-28T04:08:02.559Z,6.70
2018-01-28T04:10:30.474Z,6.70
2018-01-28T04:12:58.390Z,6.60
2018-01-28T04:15:26.571Z,6.70
2018-01-28T04:17:53.996Z,6.70
2018-01-28T04:20:22.335Z,6.80
2018-01-28T04:22:50.574Z,6.70
2018-01-28T04:25:19.221Z,6.70
2018-01-28T04:27:47.174Z,6.70
2018-01-28T04:30:15.319Z,6.70
2018-01-28T04:32:43.249Z,6.70
2018-01-28T04:35:10.277Z,6.70
2018-01-28T04:37:39.283Z,6.60
2018-01-28T04:40:08.096Z,6.70
2018-01-28T04:42:35.253Z,6.80
2018-01-28T04:45:04.217Z,6.70
2018-01-28T04:47:31.078Z,6.80
2018-01-28T04:50:00.088Z,6.80
2018-01-28T04:52:28.362Z,6.80
2018-01-28T04:54:56.687Z,6.80
2018-01-28T04:57:24.997Z,6.70
2018-01-28T04:59:53.062Z,6.80
2018-01-28T05:02:20.659Z,6.60
2018-01-28T05:04:48.000Z,6.60
2018-01-28T05:07:15.191Z,6.70
2018-01-28T05:09:42.302Z,6.70
2018-01-28T05:12:09.458Z,6.50
2018-01-28T05:14:36.478Z,6.50
2018-01-28T05:17:04.246Z,6.40
2018-01-28T05:19:31.293Z,6.40
2018-01-28T05:21:58.364Z,6.40
2018-01-28T05:24:25.591Z,6.30
2018-01-28T05:27:01.295Z,6.30
2018-01-28T05:29:42.766Z,6.40
2018-01-28T05:32:11.530Z,6.30
2018-01-28T05:34:39.554Z,6.20
2018-01-28T05:37:07.282Z,6.10
2018-01-28T05:39:34.295Z,6.10
2018-01-28T05:42:01.173Z,6.20
2018-01-28T05:44:28.034Z,6.10
2018-01-28T05:46:54.972Z,6.20
2018-01-28T05:49:21.855Z,6.20
2018-01-28T05:51:48.796Z,6.10
2018-01-28T05:54:15.679Z,6.20
2018-01-28T05:56:42.563Z,6.20
2018-01-28T05:59:10.232Z,6.10
2018-01-28T06:01:37.865Z,6.20
2018-01-28T06:04:04.788Z,6.10
2018-01-28T06:06:31.631Z,6.10
2018-01-28T06:08:58.571Z,6.10
2018-01-28T06:11:25.442Z,6.20
2018-01-28T06:13:52.389Z,6.20
2018-01-28T06:16:19.319Z,6.10
2018-01-28T06:18:46.293Z,6.20
2018-01-28T06:21:13.331Z,6.20
2018-01-28T06:23:40.222Z,6.20
2018-01-28T06:26:07.887Z,6.30
2018-01-28T06:28:34.844Z,6.30
2018-01-28T06:31:01.719Z,6.20
2018-01-28T06:33:30.276Z,6.30
2018-01-28T06:36:00.216Z,6.40
2018-01-28T06:38:30.104Z,6.30
2018-01-28T06:40:57.391Z,6.30
2018-01-28T06:43:26.920Z,6.30
2018-01-28T06:45:56.656Z,6.30
2018-01-28T06:48:26.454Z,6.30
2018-01-28T06:50:54.331Z,6.40
2018-01-28T06:53:22.261Z,6.30
2018-01-28T06:55:49.447Z,6.40
2018-01-28T06:58:16.798Z,6.40
2018-01-28T07:00:43.679Z,6.40
2018-01-28T07:03:10.903Z,6.30
2018-01-28T07:05:39.394Z,6.40
2018-01-28T07:08:06.486Z,6.40
2018-01-28T07:10:33.442Z,6.50
2018-01-28T07:13:00.311Z,6.50
2018-01-28T07:15:27.242Z,6.40
2018-01-28T07:17:54.111Z,6.40
2018-01-28T07:20:22.136Z,6.40
2018-01-28T07:22:49.071Z,6.40
2018-01-28T07:25:15.999Z,6.50
2018-01-28T07:27:43.588Z,6.50
2018-01-28T07:30:10.526Z,6.50
2018-01-28T07:32:37.412Z,6.50
2018-01-28T07:35:04.269Z,6.50
2018-01-28T07:37:31.184Z,6.50
2018-01-28T07:39:58.060Z,6.50
2018-01-28T07:42:24.994Z,6.50
2018-01-28T07:44:51.965Z,6.50
2018-01-28T07:47:18.906Z,6.50
2018-01-28T07:49:46.587Z,6.50
2018-01-28T07:52:13.439Z,6.50
2018-01-28T07:54:40.415Z,6.60
2018-01-28T07:57:07.426Z,6.60
2018-01-28T07:59:34.387Z,6.70
2018-01-28T08:02:01.254Z,6.50
2018-01-28T08:04:28.311Z,6.60
2018-01-28T08:06:56.214Z,6.60
2018-01-28T08:09:25.204Z,6.80
2018-01-28T08:12:08.902Z,6.80
2018-01-28T08:14:37.691Z,6.90
2018-01-28T08:17:04.886Z,6.90
2018-01-28T08:19:32.221Z,6.90
2018-01-28T08:21:59.334Z,7.00
2018-01-28T08:24:38.617Z,7.10
2018-01-28T08:27:10.008Z,7.20
2018-01-28T08:29:38.155Z,7.00
2018-01-28T08:32:05.008Z,7.20
2018-01-28T08:34:31.923Z,7.20
2018-01-28T08:37:01.077Z,7.20
2018-01-28T08:39:29.219Z,7.30
2018-01-28T08:41:57.371Z,7.40
2018-01-28T08:44:25.698Z,7.40
2018-01-28T08:46:54.709Z,7.40
2018-01-28T08:49:23.302Z,7.50
2018-01-28T08:51:50.271Z,7.50
2018-01-28T08:54:18.584Z,7.60
2018-01-28T08:56:46.026Z,7.50
2018-01-28T08:59:13.223Z,7.60
2018-01-28T09:01:41.790Z,7.60
2018-01-28T09:04:10.432Z,7.70
2018-01-28T09:06:39.828Z,7.70
2018-01-28T09:09:08.022Z,7.70
2018-01-28T09:11:37.304Z,7.70
2018-01-28T09:14:06.569Z,7.80
2018-01-28T09:16:34.887Z,7.80
2018-01-28T09:19:03.811Z,7.70
2018-01-28T09:21:31.466Z,7.80
2018-01-28T09:23:58.621Z,7.80
2018-01-28T09:26:25.766Z,7.90
2018-01-28T09:28:53.034Z,7.90
2018-01-28T09:31:20.262Z,7.90
2018-01-28T09:33:47.573Z,7.80
2018-01-28T09:36:14.844Z,8.00
2018-01-28T09:38:41.951Z,8.00
2018-01-28T09:41:09.603Z,8.00
2018-01-28T09:43:44.903Z,8.00
2018-01-28T09:46:24.587Z,8.00
2018-01-28T09:48:55.902Z,8.10
2018-01-28T09:51:24.278Z,8.10
2018-01-28T09:53:56.479Z,8.20
2018-01-28T09:56:28.234Z,8.20
2018-01-28T09:58:58.937Z,8.20
2018-01-28T10:01:30.250Z,8.30
2018-01-28T10:03:58.493Z,8.30
2018-01-28T10:06:25.345Z,8.30
2018-01-28T10:08:52.258Z,8.20
2018-01-28T10:11:19.399Z,8.30
2018-01-28T10:13:50.161Z,8.20
2018-01-28T10:16:26.245Z,8.30
2018-01-28T10:18:54.250Z,8.30
2018-01-28T10:21:29.237Z,8.30
2018-01-28T10:23:57.688Z,8.60
2018-01-28T10:26:35.091Z,8.60
2018-01-28T10:29:10.221Z,8.80
2018-01-28T10:31:37.771Z,8.80
2018-01-28T10:34:13.876Z,8.80
2018-01-28T10:36:43.798Z,8.80
2018-01-28T10:39:11.302Z,8.90
2018-01-28T10:41:48.886Z,8.90
2018-01-28T10:44:16.103Z,9.00
2018-01-28T10:46:43.127Z,8.90
2018-01-28T10:49:10.064Z,9.00
2018-01-28T10:54:23.224Z,9.10
2018-01-28T10:56:50.159Z,9.10
2018-01-28T10:59:17.025Z,9.20
2018-01-28T11:01:43.868Z,9.10
2018-01-28T11:04:10.844Z,9.20
2018-01-28T11:06:39.146Z,9.40
2018-01-28T11:09:06.563Z,9.30
2018-01-28T11:11:47.022Z,9.50
2018-01-28T11:14:14.783Z,9.40
2018-01-28T11:16:41.775Z,9.60
2018-01-28T11:19:08.690Z,9.80
2018-01-28T11:21:36.411Z,9.90
2018-01-28T11:24:03.295Z,9.90
2018-01-28T11:26:30.231Z,9.80
2018-01-28T11:28:57.079Z,9.70
2018-01-28T11:31:24.023Z,10.00
2018-01-28T11:33:50.881Z,10.00
2018-01-28T11:36:18.606Z,10.10
2018-01-28T11:38:47.344Z,10.10
2018-01-28T11:41:15.186Z,10.20
2018-01-28T11:43:42.031Z,10.10
2018-01-28T11:46:10.179Z,10.10
2018-01-28T11:48:41.454Z,10.20
2018-01-28T11:51:09.451Z,10.00
2018-01-28T11:53:36.356Z,10.20
2018-01-28T11:56:03.207Z,10.30
2018-01-28T11:58:30.170Z,10.00
2018-01-28T12:00:57.009Z,9.80
2018-01-28T12:03:24.255Z,9.90
2018-01-28T12:05:53.194Z,9.70
2018-01-28T12:08:20.191Z,9.70
2018-01-28T12:10:50.455Z,9.80
2018-01-28T12:13:20.303Z,9.80
2018-01-28T12:15:54.424Z,10.00
2018-01-28T12:18:21.746Z,9.90
2018-01-28T12:20:57.660Z,9.90
2018-01-28T12:23:37.870Z,10.00
2018-01-28T12:26:06.034Z,9.80
2018-01-28T12:28:33.056Z,9.80
2018-01-28T12:31:01.432Z,9.80
2018-01-28T12:33:30.106Z,9.80
2018-01-28T12:35:57.427Z,9.90
2018-01-28T12:38:24.581Z,10.00
2018-01-28T12:40:59.217Z,10.20
2018-01-28T12:43:27.442Z,10.10
2018-01-28T12:45:54.521Z,10.10
2018-01-28T12:48:21.565Z,10.10
2018-01-28T12:50:49.689Z,10.20
2018-01-28T12:53:24.474Z,10.20
2018-01-28T12:55:51.438Z,10.20
2018-01-28T12:58:18.363Z,10.10
2018-01-28T13:00:47.498Z,10.20
2018-01-28T13:03:14.416Z,10.20
2018-01-28T13:05:44.701Z,10.20
2018-01-28T13:08:13.498Z,10.20
2018-01-28T13:10:40.353Z,10.20
2018-01-28T13:13:07.275Z,10.10
2018-01-28T13:15:34.864Z,10.10
2018-01-28T13:18:01.799Z,10.10
2018-01-28T13:20:33.573Z,10.00
2018-01-28T13:23:04.745Z,10.10
2018-01-28T13:25:32.159Z,10.20
2018-01-28T13:27:59.912Z,10.40
2018-01-28T13:30:29.109Z,10.40
2018-01-28T13:32:56.886Z,10.50
2018-01-28T13:35:23.848Z,10.50
2018-01-28T13:37:53.364Z,10.50
2018-01-28T13:40:21.999Z,10.50
2018-01-28T13:42:54.601Z,10.70
2018-01-28T13:45:28.147Z,10.70
2018-01-28T13:48:01.188Z,10.60
2018-01-28T13:50:35.759Z,10.50
2018-01-28T13:53:13.048Z,10.50
2018-01-28T13:55:53.767Z,10.70
2018-01-28T13:58:34.852Z,10.80
2018-01-28T14:01:05.362Z,10.50
2018-01-28T14:06:23.923Z,10.50
2018-01-28T14:08:57.639Z,10.30
2018-01-28T14:11:25.857Z,10.30
2018-01-28T14:14:00.168Z,10.30
2018-01-28T14:16:31.253Z,10.40
2018-01-28T14:18:59.863Z,10.40
2018-01-28T14:21:28.160Z,10.20
2018-01-28T14:23:58.768Z,10.20
2018-01-28T14:26:27.082Z,10.20
2018-01-28T14:29:04.144Z,10.20
2018-01-28T14:31:32.342Z,10.20
2018-01-28T14:33:59.209Z,10.10
2018-01-28T14:36:30.588Z,10.00
2018-01-28T14:38:59.655Z,10.00
2018-01-28T14:41:26.511Z,10.10
2018-01-28T14:43:55.535Z,10.10
2018-01-28T14:46:36.483Z,9.90
2018-01-28T14:49:09.121Z,9.80
2018-01-28T14:51:48.261Z,9.70
2018-01-28T14:54:15.523Z,9.70
2018-01-28T14:56:49.789Z,9.70
2018-01-28T14:59:17.653Z,9.70
2018-01-28T15:01:44.548Z,9.70
2018-01-28T15:04:12.870Z,9.70
2018-01-28T15:06:41.608Z,9.70
2018-01-28T15:09:13.692Z,9.70
2018-01-28T15:11:45.159Z,9.50
2018-01-28T15:14:13.865Z,9.70
2018-01-28T15:16:41.820Z,9.70
2018-01-28T15:19:09.590Z,9.70
2018-01-28T15:21:37.188Z,9.70
2018-01-28T15:24:12.072Z,9.70
2018-01-28T15:26:51.523Z,9.70
2018-01-28T15:29:31.271Z,9.70
2018-01-28T15:32:10.165Z,9.60
2018-01-28T15:34:38.751Z,9.50
2018-01-28T15:37:08.562Z,9.50
2018-01-28T15:39:35.891Z,9.40
2018-01-28T15:42:03.614Z,9.30
2018-01-28T15:44:30.885Z,9.30
2018-01-28T15:47:00.504Z,9.40
2018-01-28T15:49:32.171Z,9.20
2018-01-28T15:52:03.616Z,9.20
2018-01-28T15:54:30.623Z,9.30
2018-01-28T15:56:57.598Z,9.20
2018-01-28T15:59:26.708Z,9.10
2018-01-28T16:01:55.519Z,9.20
2018-01-28T16:04:22.698Z,9.20
2018-01-28T16:06:49.565Z,9.30
2018-01-28T16:09:16.493Z,9.30
2018-01-28T16:11:43.613Z,9.20
2018-01-28T16:14:18.282Z,9.30
2018-01-28T16:16:47.520Z,9.30
2018-01-28T16:19:16.958Z,9.20
2018-01-28T16:21:46.428Z,9.20
2018-01-28T16:24:14.994Z,9.10
2018-01-28T16:26:47.715Z,9.00
2018-01-28T16:29:14.983Z,8.80
2018-01-28T16:31:41.890Z,8.90
2018-01-28T16:34:08.750Z,8.80
2018-01-28T16:36:35.673Z,8.80
2018-01-28T16:39:02.722Z,8.70
2018-01-28T16:41:29.636Z,8.70
2018-01-28T16:43:56.563Z,8.60
2018-01-28T16:46:23.467Z,8.60
2018-01-28T16:48:50.333Z,8.60
2018-01-28T16:51:18.010Z,8.50
2018-01-28T16:53:44.879Z,8.50
2018-01-28T16:56:11.814Z,8.40
2018-01-28T16:58:38.730Z,8.60
2018-01-28T17:01:05.599Z,8.60
2018-01-28T17:03:32.526Z,8.70
2018-01-28T17:06:00.133Z,8.80
2018-01-28T17:08:31.444Z,8.70
2018-01-28T17:10:58.363Z,8.80
2018-01-28T17:13:25.850Z,8.80
2018-01-28T17:15:52.754Z,8.90
2018-01-28T17:18:19.667Z,8.80
2018-01-28T17:20:46.534Z,8.80
2018-01-28T17:23:13.472Z,9.00
2018-01-28T17:25:40.415Z,9.00
2018-01-28T17:28:07.315Z,8.90
2018-01-28T17:30:34.960Z,8.90
2018-01-28T17:33:01.824Z,8.90
2018-01-28T17:35:35.493Z,8.90
2018-01-28T17:38:02.368Z,8.90
2018-01-28T17:40:30.060Z,9.00
2018-01-28T17:42:57.064Z,9.00
2018-01-28T17:45:23.944Z,9.00
2018-01-28T17:47:50.822Z,8.90
2018-01-28T17:50:17.790Z,9.00
2018-01-28T17:52:44.787Z,9.00
2018-01-28T17:55:15.107Z,9.00
2018-01-28T17:57:43.487Z,8.90
2018-01-28T18:00:10.362Z,9.00
2018-01-28T18:02:37.223Z,9.00
2018-01-28T18:05:04.160Z,9.00
2018-01-28T18:07:31.022Z,9.00
2018-01-28T18:09:57.954Z,9.00
2018-01-28T18:12:24.832Z,9.00
2018-01-28T18:14:52.531Z,9.00
2018-01-28T18:17:19.440Z,8.90
2018-01-28T18:19:47.041Z,9.10
2018-01-28T18:22:13.961Z,9.10
2018-01-28T18:24:41.724Z,9.10
2018-01-28T18:27:09.496Z,9.10
2018-01-28T18:29:38.967Z,9.00
2018-01-28T18:32:06.763Z,9.10
2018-01-28T18:34:34.363Z,9.10
2018-01-28T18:37:01.279Z,9.10
2018-01-28T18:39:28.194Z,9.20
2018-01-28T18:41:55.132Z,9.10
2018-01-28T18:44:21.988Z,9.20
2018-01-28T18:46:49.616Z,9.20
2018-01-28T18:49:16.552Z,9.20
2018-01-28T18:51:43.500Z,9.10
2018-01-28T18:54:10.435Z,9.10
2018-01-28T18:56:37.307Z,9.10
2018-01-28T18:59:04.243Z,9.10
2018-01-28T19:01:31.143Z,9.10
2018-01-28T19:03:57.995Z,9.20
2018-01-28T19:06:24.914Z,9.10
2018-01-28T19:08:52.679Z,9.10
2018-01-28T19:11:19.614Z,9.10
2018-01-28T19:13:46.540Z,9.10
2018-01-28T19:16:13.413Z,9.10
2018-01-28T19:18:40.396Z,9.00
2018-01-28T19:21:07.307Z,9.10
2018-01-28T19:23:34.245Z,9.10
2018-01-28T19:26:01.203Z,9.10
2018-01-28T19:28:28.125Z,9.10
2018-01-28T19:30:55.066Z,9.20
2018-01-28T19:33:22.023Z,9.10
2018-01-28T19:35:48.907Z,9.10
2018-01-28T19:38:18.480Z,9.20
2018-01-28T19:40:50.753Z,9.30
2018-01-28T19:43:17.616Z,9.30
2018-01-28T19:45:45.454Z,9.30
2018-01-28T19:48:12.345Z,9.20
2018-01-28T19:50:39.210Z,9.30
2018-01-28T19:53:06.409Z,9.30
2018-01-28T19:55:34.318Z,9.30
2018-01-28T19:58:01.368Z,9.30
2018-01-28T20:00:28.247Z,9.20
2018-01-28T20:02:55.186Z,9.30
2018-01-28T20:05:22.077Z,9.20
2018-01-28T20:07:49.691Z,9.30
2018-01-28T20:10:16.655Z,9.30
2018-01-28T20:12:43.514Z,9.20
2018-01-28T20:15:10.436Z,9.20
2018-01-28T20:17:37.370Z,9.30
2018-01-28T20:20:04.247Z,9.30
2018-01-28T20:22:31.186Z,9.40
2018-01-28T20:24:58.099Z,9.30
2018-01-28T20:27:25.067Z,9.40
2018-01-28T20:29:52.007Z,9.40
2018-01-28T20:32:18.875Z,9.30
2018-01-28T20:34:45.809Z,9.40
2018-01-28T20:37:12.732Z,9.40
2018-01-28T20:39:39.679Z,9.50
2018-01-28T20:42:06.646Z,9.40
2018-01-28T20:44:33.568Z,9.50
2018-01-28T20:47:00.483Z,9.60
2018-01-28T20:49:28.227Z,9.50
2018-01-28T20:51:55.098Z,9.50
2018-01-28T20:54:22.095Z,9.50
2018-01-28T20:56:48.956Z,9.50
2018-01-28T20:59:15.883Z,9.50
2018-01-28T21:01:42.749Z,9.50
2018-01-28T21:04:09.664Z,9.60
2018-01-28T21:06:36.599Z,9.50
2018-01-28T21:09:03.621Z,9.50
2018-01-28T21:11:30.549Z,9.60
2018-01-28T21:13:58.157Z,9.50
2018-01-28T21:16:24.999Z,9.50
2018-01-28T21:18:51.928Z,9.70
2018-01-28T21:21:18.826Z,9.60
2018-01-28T21:23:45.746Z,9.50
2018-01-28T21:26:12.704Z,9.60
2018-01-28T21:28:39.557Z,9.60
2018-01-28T21:31:06.492Z,9.50
2018-01-28T21:33:33.366Z,9.50
2018-01-28T21:36:00.305Z,9.50
2018-01-28T21:38:27.187Z,9.50
2018-01-28T21:40:54.115Z,9.40
2018-01-28T21:43:21.790Z,9.40
2018-01-28T21:45:48.667Z,9.40
2018-01-28T21:48:15.787Z,9.40
2018-01-28T21:50:42.647Z,9.40
2018-01-28T21:53:09.575Z,9.40
2018-01-28T21:55:36.464Z,9.40
2018-01-28T21:58:03.474Z,9.40
2018-01-28T22:00:30.331Z,9.40
2018-01-28T22:02:57.186Z,9.50
2018-01-28T22:05:24.132Z,9.50
2018-01-28T22:07:51.038Z,9.50
2018-01-28T22:10:18.687Z,9.60
2018-01-28T22:12:45.664Z,9.60
2018-01-28T22:15:12.635Z,9.60
2018-01-28T22:17:39.508Z,9.60
2018-01-28T22:20:06.424Z,9.50
2018-01-28T22:22:33.412Z,9.60
2018-01-28T22:25:00.299Z,9.70
2018-01-28T22:27:27.155Z,9.70
2018-01-28T22:29:54.074Z,9.70
2018-01-28T22:32:20.954Z,9.80
2018-01-28T22:34:47.787Z,9.70
2018-01-28T22:37:14.749Z,9.60
2018-01-28T22:39:41.681Z,9.60
2018-01-28T22:42:08.621Z,9.50
2018-01-28T22:44:35.491Z,9.60
2018-01-28T22:47:02.344Z,9.60
2018-01-28T22:49:29.330Z,9.70
2018-01-28T22:51:56.956Z,9.50
2018-01-28T22:54:23.892Z,9.50
2018-01-28T22:56:50.841Z,9.50
2018-01-28T22:59:17.771Z,9.60
2018-01-28T23:01:44.623Z,9.60
2018-01-28T23:04:11.546Z,9.60
2018-01-28T23:06:38.467Z,9.60
2018-01-28T23:09:06.191Z,9.60
2018-01-28T23:11:33.116Z,9.60
2018-01-28T23:13:59.958Z,9.60
2018-01-28T23:16:26.979Z,9.60
2018-01-28T23:18:54.578Z,9.60
2018-01-28T23:21:21.458Z,9.60
2018-01-28T23:23:48.370Z,9.70
2018-01-28T23:26:16.389Z,9.70
2018-01-28T23:28:45.264Z,9.80
2018-01-28T23:31:13.361Z,9.70
2018-01-28T23:33:40.488Z,9.80
2018-01-28T23:36:08.308Z,9.80
2018-01-28T23:38:36.580Z,9.70
2018-01-28T23:41:04.644Z,9.70
2018-01-28T23:43:32.468Z,9.70
2018-01-28T23:46:06.278Z,9.60
2018-01-28T23:48:38.578Z,9.70
2018-01-28T23:51:07.367Z,9.70
2018-01-28T23:53:35.630Z,9.80
2018-01-28T23:56:03.649Z,9.80
2018-01-28T23:58:31.074Z,9.80
